Time;durP1;ratioP1;P1;durP2;ratioP2;P2;SDS_P1;SDS_P2;PMS_P1;PMS_P2;Temp;Humidity;BMP_temperature;BMP_pressure;BME280_temperature;BME280_humidity;BME280_pressure;Samples;Min_cycle;Max_cycle;Signal;HPM_P1;HPM_P2
2021/04/29 00:01:51;;;;;;;7.90;4.10;;;13.80;23.40;;;;;;5005934;28;20397;-81
2021/04/29 00:04:16;;;;;;;6.73;4.20;;;13.70;23.60;;;;;;5003398;28;20941;-84
2021/04/29 00:06:42;;;;;;;5.30;3.90;;;13.60;24.40;;;;;;5002587;28;20402;-83
2021/04/29 00:09:09;;;;;;;6.40;4.20;;;13.50;24.60;;;;;;5003396;28;20457;-82
2021/04/29 00:11:35;;;;;;;4.40;4.00;;;13.40;25.00;;;;;;5007587;28;20406;-84
2021/04/29 00:14:03;;;;;;;7.95;4.35;;;13.40;25.50;;;;;;5005768;28;20544;-84
2021/04/29 00:16:28;;;;;;;7.40;4.10;;;13.40;26.00;;;;;;5004665;28;20386;-84
2021/04/29 00:18:54;;;;;;;8.25;4.57;;;13.40;26.30;;;;;;5002161;28;20394;-85
2021/04/29 00:21:20;;;;;;;4.35;3.80;;;13.30;26.50;;;;;;5009364;28;20398;-83
2021/04/29 00:23:46;;;;;;;5.90;4.27;;;13.30;26.70;;;;;;5014443;28;20451;-83
2021/04/29 00:26:12;;;;;;;6.40;4.10;;;13.20;27.40;;;;;;5003116;28;20395;-85
2021/04/29 00:28:40;;;;;;;9.60;4.35;;;13.20;27.40;;;;;;4999462;28;20898;-84
2021/04/29 00:31:06;;;;;;;5.22;3.97;;;13.10;28.40;;;;;;4999342;28;20580;-82
2021/04/29 00:33:32;;;;;;;4.77;4.10;;;12.80;29.00;;;;;;4997706;28;20879;-84
2021/04/29 00:36:00;;;;;;;5.63;4.50;;;12.70;29.80;;;;;;4996534;28;20438;-84
2021/04/29 00:38:30;;;;;;;7.18;4.40;;;12.70;31.00;;;;;;4996229;28;20395;-84
2021/04/29 00:40:56;;;;;;;6.50;4.72;;;12.60;31.10;;;;;;4995971;28;20409;-84
2021/04/29 00:43:22;;;;;;;6.10;4.78;;;12.60;32.10;;;;;;4998833;28;20768;-83
2021/04/29 00:45:48;;;;;;;6.35;4.65;;;12.70;31.50;;;;;;4999929;28;20395;-84
2021/04/29 00:48:15;;;;;;;8.38;4.80;;;12.70;31.80;;;;;;5002390;28;20482;-85
2021/04/29 00:50:41;;;;;;;9.13;4.40;;;12.60;32.40;;;;;;4999862;28;20406;-83
2021/04/29 00:53:07;;;;;;;7.97;5.10;;;12.60;32.10;;;;;;4995203;28;20397;-83
2021/04/29 00:55:33;;;;;;;6.63;4.50;;;12.50;32.60;;;;;;4994652;28;20387;-84
2021/04/29 00:57:59;;;;;;;5.88;4.32;;;12.30;33.60;;;;;;4993974;28;20395;-81
2021/04/29 01:00:26;;;;;;;5.60;4.10;;;12.30;34.70;;;;;;4995931;28;20480;-83
2021/04/29 01:02:56;;;;;;;7.07;4.30;;;12.30;35.10;;;;;;4996049;28;20394;-82
2021/04/29 01:05:25;;;;;;;5.13;4.60;;;12.20;35.70;;;;;;4994478;28;20494;-82
2021/04/29 01:08:05;;;;;;;5.07;4.55;;;12.10;36.60;;;;;;4993925;28;20418;-81
2021/04/29 01:10:39;;;;;;;7.05;5.53;;;12.00;36.90;;;;;;4994255;28;20513;-81
2021/04/29 01:13:07;;;;;;;8.45;5.20;;;12.00;37.70;;;;;;5006030;28;20390;-81
2021/04/29 01:15:37;;;;;;;8.50;4.95;;;11.90;38.30;;;;;;5012389;28;20401;-81
2021/04/29 01:18:03;;;;;;;7.43;4.55;;;11.90;38.10;;;;;;5014345;28;20394;-80
2021/04/29 01:20:52;;;;;;;6.53;4.70;;;11.90;37.60;;;;;;5012802;28;20426;-83
2021/04/29 01:23:27;;;;;;;7.03;4.50;;;11.80;38.40;;;;;;5012023;28;20392;-82
2021/04/29 01:25:59;;;;;;;6.10;4.70;;;11.70;38.70;;;;;;5009944;28;20398;-80
2021/04/29 01:28:27;;;;;;;8.77;5.50;;;11.70;39.70;;;;;;5008049;28;20390;-84
2021/04/29 01:30:54;;;;;;;9.63;5.68;;;11.70;39.70;;;;;;5008619;28;20405;-81
2021/04/29 01:33:21;;;;;;;7.73;5.73;;;11.70;40.30;;;;;;5013614;28;20383;-81
2021/04/29 01:35:47;;;;;;;11.10;5.30;;;11.70;40.30;;;;;;5008677;28;20394;-80
2021/04/29 01:38:13;;;;;;;7.22;5.60;;;11.70;40.30;;;;;;5010301;28;20374;-82
2021/04/29 01:40:39;;;;;;;9.00;5.03;;;11.70;40.90;;;;;;5015425;28;20390;-81
2021/04/29 01:43:07;;;;;;;8.57;5.57;;;11.70;40.80;;;;;;5015518;28;20394;-82
2021/04/29 01:45:33;;;;;;;9.55;5.45;;;11.60;41.40;;;;;;5015131;28;20409;-81
2021/04/29 01:47:59;;;;;;;7.93;5.30;;;11.60;41.90;;;;;;5014429;28;20415;-81
2021/04/29 01:50:25;;;;;;;8.68;6.40;;;11.50;41.70;;;;;;5013874;28;20398;-80
2021/04/29 01:52:51;;;;;;;12.07;5.77;;;11.40;42.50;;;;;;5004432;28;20421;-82
2021/04/29 01:55:17;;;;;;;7.65;5.47;;;11.40;42.40;;;;;;5002697;28;20386;-79
2021/04/29 01:57:43;;;;;;;10.27;5.80;;;11.40;42.60;;;;;;5003594;28;20469;-80
2021/04/29 02:00:10;;;;;;;8.30;6.40;;;11.40;43.10;;;;;;5008130;28;20468;-79
2021/04/29 02:02:36;;;;;;;7.10;5.30;;;11.30;43.40;;;;;;5009890;28;20457;-81
2021/04/29 02:05:03;;;;;;;9.25;5.90;;;11.30;43.50;;;;;;5010483;28;20441;-83
2021/04/29 02:07:28;;;;;;;11.40;6.60;;;11.40;42.90;;;;;;5011030;28;20378;-83
2021/04/29 02:09:54;;;;;;;8.32;5.90;;;11.40;42.30;;;;;;5010382;28;20417;-84
2021/04/29 02:12:21;;;;;;;9.50;6.55;;;11.40;42.40;;;;;;5010371;28;21030;-80
2021/04/29 02:14:49;;;;;;;11.13;6.57;;;11.50;41.10;;;;;;5011581;28;20383;-84
2021/04/29 02:17:48;;;;;;;15.43;7.20;;;11.70;39.00;;;;;;5012477;28;20501;-82
2021/04/29 02:20:15;;;;;;;14.25;7.57;;;11.80;37.70;;;;;;5013383;28;20417;-82
2021/04/29 02:22:43;;;;;;;15.07;7.57;;;12.10;34.90;;;;;;5013067;28;20883;-82
2021/04/29 02:25:12;;;;;;;14.05;8.20;;;12.30;33.90;;;;;;5014145;28;20461;-82
2021/04/29 02:27:38;;;;;;;16.02;9.80;;;12.30;33.40;;;;;;5013135;28;20482;-81
2021/04/29 02:30:09;;;;;;;15.70;9.47;;;12.50;32.30;;;;;;5013746;28;20728;-82
2021/04/29 02:32:35;;;;;;;16.10;9.40;;;12.60;31.80;;;;;;5014027;28;20449;-81
2021/04/29 02:35:05;;;;;;;21.73;10.60;;;12.70;30.80;;;;;;5012529;28;20395;-83
2021/04/29 02:37:31;;;;;;;15.40;9.70;;;12.80;30.50;;;;;;5016165;28;20462;-81
2021/04/29 02:39:57;;;;;;;15.07;10.90;;;12.70;30.90;;;;;;5021309;28;20398;-81
2021/04/29 02:42:22;;;;;;;16.98;10.50;;;12.80;30.70;;;;;;5020325;28;20409;-81
2021/04/29 02:44:48;;;;;;;22.30;11.05;;;12.90;30.60;;;;;;5020031;28;20439;-83
2021/04/29 02:47:15;;;;;;;20.50;10.77;;;12.90;30.40;;;;;;5020977;28;20386;-81
2021/04/29 02:49:41;;;;;;;16.70;10.52;;;12.90;30.60;;;;;;5017987;28;20419;-81
2021/04/29 02:52:10;;;;;;;19.50;10.80;;;12.90;30.50;;;;;;5018178;28;20593;-82
2021/04/29 02:54:36;;;;;;;18.60;11.27;;;12.90;30.60;;;;;;5013476;28;20497;-82
2021/04/29 02:57:01;;;;;;;15.25;10.93;;;13.00;30.30;;;;;;5019085;28;20386;-80
2021/04/29 02:59:27;;;;;;;24.60;11.32;;;13.00;30.40;;;;;;5017274;28;20505;-82
2021/04/29 03:01:53;;;;;;;17.98;11.73;;;13.00;30.30;;;;;;5015893;28;20389;-81
2021/04/29 03:04:18;;;;;;;16.55;11.25;;;13.10;30.50;;;;;;5021864;28;20405;-80
2021/04/29 03:06:44;;;;;;;18.10;12.02;;;13.00;30.50;;;;;;5019941;28;20398;-82
2021/04/29 03:09:10;;;;;;;16.25;11.68;;;13.00;30.40;;;;;;5016670;28;20403;-81
2021/04/29 03:11:36;;;;;;;22.43;12.80;;;13.00;30.60;;;;;;5014563;28;20470;-83
2021/04/29 03:14:02;;;;;;;18.35;12.10;;;13.00;30.70;;;;;;5015283;28;20409;-82
2021/04/29 03:16:28;;;;;;;16.92;11.65;;;13.00;30.90;;;;;;5013499;28;20391;-82
2021/04/29 03:18:53;;;;;;;22.88;11.90;;;13.00;30.70;;;;;;5013517;28;20417;-82
2021/04/29 03:21:19;;;;;;;23.48;12.07;;;13.00;31.40;;;;;;5014759;28;20398;-81
2021/04/29 03:23:45;;;;;;;17.52;11.70;;;13.00;31.10;;;;;;5013097;28;20413;-79
2021/04/29 03:26:11;;;;;;;24.50;12.30;;;13.00;31.20;;;;;;5014248;28;20387;-81
2021/04/29 03:28:36;;;;;;;18.90;12.40;;;12.90;31.20;;;;;;5011628;28;20406;-80
2021/04/29 03:31:02;;;;;;;19.80;12.27;;;12.90;31.80;;;;;;5009910;28;20414;-81
2021/04/29 03:33:28;;;;;;;16.80;11.60;;;12.90;31.70;;;;;;5002333;28;20417;-82
2021/04/29 03:35:53;;;;;;;18.40;10.80;;;12.90;31.90;;;;;;5007377;28;20405;-82
2021/04/29 03:38:19;;;;;;;24.63;11.97;;;12.90;32.50;;;;;;5012164;28;20444;-80
2021/04/29 03:40:45;;;;;;;19.25;11.60;;;12.90;32.20;;;;;;5013277;28;20404;-82
2021/04/29 03:43:10;;;;;;;21.02;11.20;;;12.90;32.00;;;;;;5013908;28;20402;-82
2021/04/29 03:45:37;;;;;;;25.45;11.98;;;12.90;32.30;;;;;;5007934;28;20905;-82
2021/04/29 03:48:03;;;;;;;20.23;12.00;;;12.80;32.60;;;;;;5009306;28;20399;-83
2021/04/29 03:50:29;;;;;;;20.48;11.77;;;12.80;32.80;;;;;;5003407;28;20390;-81
2021/04/29 03:52:54;;;;;;;18.43;12.00;;;12.80;33.00;;;;;;5001416;28;20399;-81
2021/04/29 03:55:20;;;;;;;20.57;12.93;;;12.80;33.10;;;;;;5002725;28;20450;-83
2021/04/29 03:57:46;;;;;;;17.73;13.20;;;12.80;32.80;;;;;;5001735;28;20374;-82
2021/04/29 04:00:12;;;;;;;22.10;13.10;;;12.80;33.00;;;;;;5001117;28;20763;-82
2021/04/29 04:02:38;;;;;;;22.65;14.05;;;12.80;33.60;;;;;;4999353;28;20401;-82
2021/04/29 04:05:05;;;;;;;25.80;13.80;;;12.80;33.20;;;;;;5007428;28;20442;-80
2021/04/29 04:07:31;;;;;;;24.92;13.98;;;12.70;33.30;;;;;;5000909;28;20394;-81
2021/04/29 04:09:56;;;;;;;26.27;13.70;;;12.70;34.10;;;;;;5003905;28;20453;-79
2021/04/29 04:12:22;;;;;;;21.25;14.02;;;12.70;34.10;;;;;;5018403;28;20416;-81
2021/04/29 04:14:48;;;;;;;26.15;15.40;;;12.60;34.40;;;;;;5011978;28;20481;-79
2021/04/29 04:17:13;;;;;;;27.60;14.85;;;12.70;34.40;;;;;;5015014;28;20745;-83
2021/04/29 04:19:39;;;;;;;27.45;16.13;;;12.70;34.00;;;;;;5016618;28;21100;-82
2021/04/29 04:22:05;;;;;;;27.25;16.10;;;12.60;34.20;;;;;;5014560;28;20438;-81
2021/04/29 04:24:30;;;;;;;28.88;16.83;;;12.60;34.60;;;;;;5008153;28;20401;-82
2021/04/29 04:26:56;;;;;;;37.13;17.90;;;12.50;35.00;;;;;;5013065;28;20403;-81
2021/04/29 04:29:21;;;;;;;28.70;17.63;;;12.50;35.10;;;;;;5012110;28;20413;-81
2021/04/29 04:31:47;;;;;;;27.33;16.67;;;12.50;35.10;;;;;;5010675;28;20414;-80
2021/04/29 04:34:13;;;;;;;25.92;16.75;;;12.40;35.60;;;;;;5008425;28;20398;-81
2021/04/29 04:36:39;;;;;;;31.70;18.25;;;12.40;35.60;;;;;;5007325;28;20457;-82
2021/04/29 04:39:05;;;;;;;28.65;18.48;;;12.40;35.20;;;;;;5008259;28;20399;-83
2021/04/29 04:41:30;;;;;;;30.20;17.80;;;12.30;35.60;;;;;;5007607;28;20395;-82
2021/04/29 04:43:56;;;;;;;35.80;19.37;;;12.30;36.00;;;;;;5009656;28;20631;-82
2021/04/29 04:46:22;;;;;;;29.47;18.60;;;12.30;36.10;;;;;;5009267;28;20398;-83
2021/04/29 04:48:47;;;;;;;33.40;20.27;;;12.30;36.10;;;;;;5008901;28;20398;-83
2021/04/29 04:51:13;;;;;;;35.83;20.37;;;12.40;35.50;;;;;;5008667;28;20414;-82
2021/04/29 04:53:39;;;;;;;32.47;20.50;;;12.30;35.40;;;;;;5008429;28;20399;-83
2021/04/29 04:56:04;;;;;;;30.10;19.17;;;12.30;35.70;;;;;;5008261;28;20425;-82
2021/04/29 04:58:30;;;;;;;36.80;21.73;;;12.30;36.10;;;;;;5014649;28;20390;-83
2021/04/29 05:00:56;;;;;;;35.43;20.33;;;12.30;35.60;;;;;;5014892;28;20402;-81
2021/04/29 05:03:21;;;;;;;36.37;21.10;;;12.20;35.80;;;;;;5008167;28;20409;-82
2021/04/29 05:05:47;;;;;;;33.33;21.70;;;12.20;36.10;;;;;;5006937;28;20433;-80
2021/04/29 05:08:14;;;;;;;33.90;21.20;;;12.30;36.00;;;;;;5006825;28;20398;-81
2021/04/29 05:10:40;;;;;;;31.13;21.33;;;12.40;35.00;;;;;;5006168;28;20435;-83
2021/04/29 05:13:06;;;;;;;52.92;30.20;;;12.30;35.00;;;;;;5007996;28;20399;-82
2021/04/29 05:15:35;;;;;;;56.00;33.55;;;12.50;35.10;;;;;;5007136;28;20399;-81
2021/04/29 05:18:02;;;;;;;37.38;23.50;;;12.50;34.70;;;;;;5010532;28;20387;-80
2021/04/29 05:20:29;;;;;;;37.97;24.08;;;12.50;33.80;;;;;;5015603;28;20445;-82
2021/04/29 05:22:54;;;;;;;40.65;26.92;;;12.50;33.80;;;;;;5014581;28;20386;-81
2021/04/29 05:25:24;;;;;;;44.53;27.30;;;12.50;33.60;;;;;;5020549;28;20520;-82
2021/04/29 05:27:52;;;;;;;45.63;28.20;;;12.50;31.50;;;;;;4988550;28;20403;-82
2021/04/29 05:30:19;;;;;;;48.70;29.00;;;12.60;31.20;;;;;;5005319;28;20453;-82
2021/04/29 05:32:46;;;;;;;43.90;29.00;;;12.60;30.40;;;;;;5013232;28;20501;-82
2021/04/29 05:35:12;;;;;;;80.50;47.58;;;12.60;30.50;;;;;;5006756;28;20386;-82
2021/04/29 05:37:37;;;;;;;52.10;29.90;;;12.50;32.00;;;;;;5007703;28;20402;-84
2021/04/29 05:40:03;;;;;;;61.07;37.33;;;12.60;29.60;;;;;;5010312;28;20387;-83
2021/04/29 05:42:29;;;;;;;49.05;30.42;;;12.60;29.40;;;;;;5015378;28;20383;-82
2021/04/29 05:44:55;;;;;;;50.10;32.40;;;12.50;29.60;;;;;;5014408;28;20398;-83
2021/04/29 05:47:20;;;;;;;54.90;31.33;;;12.50;29.90;;;;;;5013257;28;20367;-82
2021/04/29 05:49:46;;;;;;;53.78;33.60;;;12.40;29.10;;;;;;5015628;28;20426;-83
2021/04/29 05:52:12;;;;;;;57.65;31.65;;;12.30;29.30;;;;;;5012652;28;20422;-83
2021/04/29 05:54:39;;;;;;;68.90;34.93;;;12.20;29.60;;;;;;5006624;28;20387;-84
2021/04/29 05:57:05;;;;;;;51.20;33.40;;;12.10;30.00;;;;;;5010317;28;20406;-83
2021/04/29 05:59:31;;;;;;;52.95;31.02;;;12.10;30.30;;;;;;4996542;28;20395;-75
2021/04/29 06:01:57;;;;;;;53.92;34.58;;;12.00;30.40;;;;;;4998259;28;20560;-76
2021/04/29 06:04:22;;;;;;;56.00;35.15;;;12.00;30.90;;;;;;4999823;28;20679;-77
2021/04/29 06:06:48;;;;;;;55.50;36.03;;;12.00;30.50;;;;;;5001898;28;20421;-77
2021/04/29 06:09:15;;;;;;;45.07;29.37;;;12.00;30.90;;;;;;5005780;28;20418;-76
2021/04/29 06:11:40;;;;;;;49.80;31.08;;;12.00;30.00;;;;;;5009807;28;20410;-80
2021/04/29 06:14:07;;;;;;;55.30;31.30;;;11.90;30.50;;;;;;5010182;28;20430;-79
2021/04/29 06:16:32;;;;;;;47.28;31.08;;;11.90;30.60;;;;;;5025928;28;20452;-80
2021/04/29 06:18:58;;;;;;;43.35;28.27;;;11.90;30.90;;;;;;5018170;28;20461;-76
2021/04/29 06:21:23;;;;;;;45.05;29.85;;;11.90;30.00;;;;;;4998893;28;20395;-79
2021/04/29 06:24:10;;;;;;;47.35;28.98;;;11.90;30.70;;;;;;5008366;28;20426;-83
2021/04/29 06:27:01;;;;;;;45.67;29.13;;;12.00;29.40;;;;;;5008226;28;20390;-85
2021/04/29 06:29:38;;;;;;;44.60;28.90;;;12.00;30.10;;;;;;5000044;28;20406;-83
2021/04/29 06:32:52;;;;;;;;;;;;;;;;;;;;;
2021/04/29 06:35:18;;;;;;;45.25;27.77;;;12.00;28.30;;;;;;5001819;28;20432;-83
2021/04/29 06:37:46;;;;;;;44.55;26.33;;;12.10;28.40;;;;;;5024431;28;20379;-82
2021/04/29 06:40:25;;;;;;;39.28;25.55;;;12.20;26.40;;;;;;5009122;28;21046;-84
2021/04/29 06:43:31;;;;;;;42.55;25.98;;;12.20;26.30;;;;;;5014041;28;20401;-84
2021/04/29 06:45:57;;;;;;;41.40;25.45;;;12.20;26.10;;;;;;5016217;28;20417;-77
2021/04/29 06:48:23;;;;;;;42.00;25.67;;;12.30;25.50;;;;;;5008019;28;20402;-82
2021/04/29 06:50:49;;;;;;;42.88;24.73;;;12.40;25.70;;;;;;5007026;28;20414;-83
2021/04/29 06:53:15;;;;;;;37.75;24.17;;;12.40;25.00;;;;;;5007391;28;20995;-79
2021/04/29 06:55:41;;;;;;;43.50;26.00;;;12.50;23.70;;;;;;5010002;28;20386;-80
2021/04/29 06:58:06;;;;;;;39.70;25.58;;;12.40;24.50;;;;;;5007470;28;20390;-81
2021/04/29 07:00:32;;;;;;;43.30;26.13;;;12.40;25.20;;;;;;5007782;28;20390;-82
2021/04/29 07:02:59;;;;;;;42.67;25.17;;;12.50;25.30;;;;;;5006923;28;20383;-81
2021/04/29 07:05:26;;;;;;;46.47;27.00;;;12.50;25.30;;;;;;5007904;28;20760;-82
2021/04/29 07:07:55;;;;;;;46.67;28.13;;;12.50;25.90;;;;;;5005448;28;20395;-83
2021/04/29 07:10:23;;;;;;;44.95;28.70;;;12.50;26.00;;;;;;5005655;28;20413;-82
2021/04/29 07:12:49;;;;;;;49.47;29.77;;;12.50;26.30;;;;;;5007217;28;20457;-80
2021/04/29 07:15:19;;;;;;;49.53;29.60;;;12.50;27.40;;;;;;5006902;28;20705;-80
2021/04/29 07:17:46;;;;;;;48.15;31.42;;;12.60;27.40;;;;;;5008377;28;20395;-81
2021/04/29 07:20:12;;;;;;;49.70;32.30;;;12.60;28.20;;;;;;5012591;28;20387;-81
2021/04/29 07:22:37;;;;;;;49.80;31.60;;;12.70;28.20;;;;;;5014548;28;20406;-80
2021/04/29 07:25:06;;;;;;;61.20;37.50;;;12.90;28.20;;;;;;5016984;28;20413;-81
2021/04/29 07:27:31;;;;;;;76.10;43.08;;;13.00;29.30;;;;;;5017380;28;20383;-79
2021/04/29 07:29:57;;;;;;;69.13;41.70;;;13.10;29.80;;;;;;5011906;28;20441;-82
2021/04/29 07:32:22;;;;;;;75.83;46.90;;;13.20;30.10;;;;;;5024343;22;20450;-73
2021/04/29 07:34:48;;;;;;;78.47;48.87;;;13.40;30.30;;;;;;5013668;28;20389;-73
2021/04/29 07:37:14;;;;;;;81.10;50.50;;;13.60;30.20;;;;;;5013412;28;20970;-72
2021/04/29 07:39:39;;;;;;;84.35;50.35;;;13.80;29.20;;;;;;5013169;28;20900;-73
2021/04/29 07:42:05;;;;;;;79.75;50.70;;;14.00;29.30;;;;;;5013028;28;20381;-74
2021/04/29 07:44:30;;;;;;;85.70;53.70;;;14.10;28.60;;;;;;5013025;28;20389;-71
2021/04/29 07:46:56;;;;;;;91.43;54.67;;;14.10;28.50;;;;;;5013078;28;20405;-72
2021/04/29 07:49:22;;;;;;;84.07;54.33;;;14.30;28.20;;;;;;5013717;28;20388;-73
2021/04/29 07:51:47;;;;;;;90.10;54.30;;;14.30;27.70;;;;;;5028551;28;20932;-72
2021/04/29 07:54:14;;;;;;;92.30;53.40;;;14.30;26.90;;;;;;5012695;28;20396;-74
2021/04/29 07:56:44;;;;;;;97.30;56.50;;;14.00;26.90;;;;;;5011596;28;20403;-71
2021/04/29 07:59:10;;;;;;;99.80;54.45;;;13.80;28.60;;;;;;5013162;28;20403;-72
2021/04/29 08:01:36;;;;;;;92.72;54.60;;;13.90;28.70;;;;;;5012927;28;20897;-72
2021/04/29 08:04:02;;;;;;;94.73;54.40;;;14.20;26.70;;;;;;5013011;28;20758;-72
2021/04/29 08:06:31;;;;;;;93.80;52.83;;;14.30;26.20;;;;;;5012950;28;20454;-72
2021/04/29 08:08:58;;;;;;;94.50;52.63;;;14.30;25.70;;;;;;5010279;28;21364;-72
2021/04/29 08:11:24;;;;;;;90.22;53.58;;;14.40;25.00;;;;;;5012812;28;20492;-72
2021/04/29 08:13:51;;;;;;;88.97;53.10;;;14.60;24.10;;;;;;5012654;28;20466;-73
2021/04/29 08:16:16;;;;;;;95.20;50.57;;;15.00;23.30;;;;;;5011214;28;20530;-72
2021/04/29 08:18:43;;;;;;;86.00;51.80;;;15.00;21.30;;;;;;5012569;28;20385;-71
2021/04/29 08:21:09;;;;;;;94.70;52.25;;;14.90;22.40;;;;;;5012107;28;20397;-72
2021/04/29 08:23:36;;;;;;;89.45;50.53;;;14.80;22.70;;;;;;5012368;28;20403;-72
2021/04/29 08:26:03;;;;;;;82.93;50.25;;;14.70;22.90;;;;;;5011923;28;20515;-71
2021/04/29 08:28:28;;;;;;;91.63;50.55;;;14.70;23.30;;;;;;5011978;28;20399;-73
2021/04/29 08:30:55;;;;;;;94.35;49.72;;;14.60;23.90;;;;;;5012445;28;20416;-73
2021/04/29 08:33:21;;;;;;;128.85;51.90;;;14.60;23.10;;;;;;5011212;28;20732;-72
2021/04/29 08:35:46;;;;;;;81.93;47.78;;;14.40;23.20;;;;;;5012618;28;20393;-71
2021/04/29 08:38:12;;;;;;;87.65;47.35;;;14.30;23.40;;;;;;5014681;28;20407;-72
2021/04/29 08:40:37;;;;;;;76.22;45.22;;;14.30;22.60;;;;;;5013620;28;20447;-71
2021/04/29 08:43:03;;;;;;;86.30;45.30;;;14.10;22.80;;;;;;5027338;28;20399;-70
2021/04/29 08:45:29;;;;;;;76.40;44.17;;;14.00;22.30;;;;;;5012068;28;20882;-71
2021/04/29 08:47:56;;;;;;;71.17;44.40;;;14.00;22.10;;;;;;5012158;28;20487;-70
2021/04/29 08:50:23;;;;;;;74.75;43.80;;;13.80;22.40;;;;;;5012220;28;20458;-72
2021/04/29 08:52:50;;;;;;;73.72;42.85;;;14.00;21.80;;;;;;5011277;28;20735;-73
2021/04/29 08:55:21;;;;;;;74.93;42.80;;;14.30;20.30;;;;;;5010797;28;20924;-72
2021/04/29 08:57:47;;;;;;;72.78;43.20;;;14.60;19.80;;;;;;5012259;28;20587;-74
2021/04/29 09:00:14;;;;;;;76.63;42.28;;;15.00;19.40;;;;;;5012261;28;20397;-73
2021/04/29 09:02:41;;;;;;;75.78;41.63;;;15.50;17.60;;;;;;5011164;28;20409;-72
2021/04/29 09:05:15;;;;;;;66.80;41.00;;;15.70;17.40;;;;;;5010808;28;20397;-72
2021/04/29 09:08:06;;;;;;;70.70;39.28;;;15.70;16.80;;;;;;5010800;28;20508;-75
2021/04/29 09:10:36;;;;;;;60.88;40.08;;;15.40;16.80;;;;;;5024893;28;20492;-74
2021/04/29 09:13:13;;;;;;;67.60;39.90;;;15.10;18.10;;;;;;5011660;28;20948;-74
2021/04/29 09:15:39;;;;;;;67.93;40.00;;;15.40;17.10;;;;;;5008371;28;20878;-73
2021/04/29 09:18:13;;;;;;;64.60;40.10;;;15.60;16.80;;;;;;5011598;28;20468;-76
2021/04/29 09:20:49;;;;;;;64.38;40.08;;;15.20;18.20;;;;;;5012172;28;20450;-74
2021/04/29 09:23:18;;;;;;;58.40;39.33;;;15.00;18.90;;;;;;5011296;28;20397;-74
2021/04/29 09:25:55;;;;;;;60.20;37.65;;;14.90;19.10;;;;;;5011712;28;21069;-75
2021/04/29 09:28:31;;;;;;;58.90;38.33;;;14.90;18.20;;;;;;5010649;28;20420;-72
2021/04/29 09:31:02;;;;;;;59.63;38.42;;;15.00;18.30;;;;;;5010610;28;20431;-72
2021/04/29 09:33:33;;;;;;;56.42;35.65;;;14.90;18.10;;;;;;5010974;28;20388;-72
2021/04/29 09:35:58;;;;;;;53.13;36.25;;;14.60;17.90;;;;;;5010791;28;20475;-72
2021/04/29 09:38:38;;;;;;;52.10;34.70;;;14.70;18.30;;;;;;5010773;28;20480;-72
2021/04/29 09:41:06;;;;;;;59.88;33.35;;;14.80;16.50;;;;;;5011635;28;20419;-72
2021/04/29 09:43:32;;;;;;;49.50;34.70;;;14.90;16.20;;;;;;5010070;28;20509;-72
2021/04/29 09:46:00;;;;;;;47.58;30.55;;;14.90;16.60;;;;;;5011059;28;20388;-72
2021/04/29 09:48:39;;;;;;;47.22;32.22;;;14.80;15.90;;;;;;5010753;28;20404;-72
2021/04/29 09:51:08;;;;;;;55.58;34.38;;;14.60;17.20;;;;;;5010380;28;20416;-71
2021/04/29 09:53:43;;;;;;;54.78;34.53;;;14.60;18.00;;;;;;5009741;28;20400;-72
2021/04/29 09:56:11;;;;;;;46.90;32.70;;;14.80;17.60;;;;;;5010758;28;20476;-72
2021/04/29 09:58:37;;;;;;;47.40;31.83;;;15.10;16.90;;;;;;5010651;28;20889;-71
2021/04/29 10:01:06;;;;;;;41.47;29.00;;;14.90;16.00;;;;;;5010770;28;20476;-71
2021/04/29 10:03:32;;;;;;;46.33;31.38;;;14.50;16.30;;;;;;5010405;28;20400;-71
2021/04/29 10:05:58;;;;;;;53.95;30.85;;;14.40;17.20;;;;;;5009679;28;20877;-72
2021/04/29 10:08:27;;;;;;;42.17;29.67;;;14.50;17.40;;;;;;5009531;28;20432;-72
2021/04/29 10:10:56;;;;;;;43.65;29.88;;;14.70;16.10;;;;;;5010978;28;20885;-71
2021/04/29 10:13:27;;;;;;;41.67;28.08;;;14.90;16.30;;;;;;5009285;28;20932;-71
2021/04/29 10:15:53;;;;;;;44.30;27.37;;;14.70;16.10;;;;;;5011727;28;20380;-70
2021/04/29 10:18:19;;;;;;;41.00;27.53;;;14.70;15.60;;;;;;5016279;28;20476;-71
2021/04/29 10:20:49;;;;;;;45.97;26.37;;;14.70;14.40;;;;;;5014279;28;20405;-71
2021/04/29 10:23:17;;;;;;;41.88;27.15;;;14.70;14.80;;;;;;5014685;28;20472;-71
2021/04/29 10:25:49;;;;;;;36.53;27.27;;;14.90;14.90;;;;;;5014446;28;20787;-71
2021/04/29 10:28:27;;;;;;;35.08;25.30;;;15.30;14.00;;;;;;5014652;28;20380;-72
2021/04/29 10:30:53;;;;;;;37.08;26.08;;;15.80;12.90;;;;;;5013082;28;20447;-70
2021/04/29 10:33:20;;;;;;;35.80;24.63;;;16.40;12.00;;;;;;5014221;28;20521;-72
2021/04/29 10:35:57;;;;;;;37.85;25.17;;;16.60;11.80;;;;;;5014342;28;20397;-69
2021/04/29 10:38:32;;;;;;;39.20;27.15;;;16.90;10.60;;;;;;5014044;28;20746;-70
2021/04/29 10:41:15;;;;;;;34.60;25.20;;;16.70;11.20;;;;;;5014399;28;20477;-70
2021/04/29 10:43:40;;;;;;;40.40;26.00;;;16.40;11.20;;;;;;5013461;28;20400;-69
2021/04/29 10:46:07;;;;;;;37.60;26.70;;;16.00;12.40;;;;;;5012538;28;20411;-70
2021/04/29 10:48:35;;;;;;;43.27;26.77;;;15.80;13.40;;;;;;5013666;28;20873;-69
2021/04/29 10:51:06;;;;;;;39.22;26.60;;;15.70;13.30;;;;;;5013764;28;20466;-69
2021/04/29 10:53:34;;;;;;;38.60;27.15;;;15.70;13.70;;;;;;5013897;28;20809;-70
2021/04/29 10:56:06;;;;;;;35.65;24.80;;;15.70;13.80;;;;;;5014296;28;20377;-69
2021/04/29 10:58:32;;;;;;;35.10;24.60;;;15.70;13.10;;;;;;5014086;28;20405;-69
2021/04/29 11:01:05;;;;;;;34.83;23.95;;;15.80;12.80;;;;;;5013855;28;20870;-70
2021/04/29 11:03:39;;;;;;;29.83;22.45;;;15.50;13.30;;;;;;5013741;28;20389;-69
2021/04/29 11:06:13;;;;;;;35.97;21.40;;;15.20;13.00;;;;;;5012693;28;20443;-71
2021/04/29 11:08:48;;;;;;;32.40;22.23;;;14.80;13.50;;;;;;5028637;28;20479;-69
2021/04/29 11:11:22;;;;;;;66.10;29.42;;;14.50;16.00;;;;;;4997192;28;20413;-70
2021/04/29 11:14:09;;;;;;;42.30;28.20;;;13.40;42.90;;;;;;5008622;28;20459;-70
2021/04/29 11:16:51;;;;;;;36.15;24.23;;;12.40;49.90;;;;;;5010814;28;20393;-69
2021/04/29 11:19:37;;;;;;;46.58;28.77;;;11.90;52.20;;;;;;5000308;28;20752;-69
2021/04/29 11:22:05;;;;;;;55.20;30.33;;;11.90;51.30;;;;;;5013675;28;20900;-69
2021/04/29 11:24:35;;;;;;;55.03;31.50;;;12.10;49.90;;;;;;5013262;28;20397;-71
2021/04/29 11:27:01;;;;;;;56.08;29.20;;;12.30;50.50;;;;;;5011232;28;20496;-72
2021/04/29 11:29:38;;;;;;;50.57;25.60;;;12.60;45.80;;;;;;5012107;28;20480;-72
2021/04/29 11:32:03;;;;;;;44.85;23.10;;;13.10;45.40;;;;;;5013864;28;20420;-70
2021/04/29 11:34:42;;;;;;;42.23;21.87;;;13.50;42.50;;;;;;5014244;28;20397;-72
2021/04/29 11:37:08;;;;;;;40.92;20.85;;;13.90;39.50;;;;;;5015252;28;20389;-73
2021/04/29 11:39:34;;;;;;;42.35;18.30;;;14.00;36.80;;;;;;5012662;28;20491;-71
2021/04/29 11:42:00;;;;;;;42.30;19.10;;;13.90;34.70;;;;;;5013003;28;20484;-72
2021/04/29 11:44:27;;;;;;;32.28;18.23;;;14.00;36.90;;;;;;5013224;28;20381;-71
2021/04/29 11:46:53;;;;;;;36.05;20.00;;;14.00;36.80;;;;;;4999926;28;20406;-72
2021/04/29 11:49:18;;;;;;;32.50;20.20;;;14.10;36.80;;;;;;5005646;28;20404;-73
2021/04/29 11:51:49;;;;;;;28.17;18.17;;;14.00;38.60;;;;;;5013034;28;20851;-72
2021/04/29 11:54:18;;;;;;;28.42;18.00;;;14.30;34.20;;;;;;5013012;28;20394;-73
2021/04/29 11:56:46;;;;;;;23.50;17.13;;;14.30;31.10;;;;;;5000614;28;20895;-71
2021/04/29 11:59:14;;;;;;;25.40;17.70;;;14.30;26.60;;;;;;4994722;28;20402;-71
2021/04/29 12:01:41;;;;;;;19.63;15.80;;;14.40;28.20;;;;;;5023846;28;20420;-71
2021/04/29 12:04:16;;;;;;;24.42;16.10;;;14.70;26.60;;;;;;5002944;28;20438;-70
2021/04/29 12:06:52;;;;;;;18.88;15.02;;;15.00;25.80;;;;;;5003291;28;20877;-70
2021/04/29 12:09:19;;;;;;;17.75;14.55;;;15.10;22.70;;;;;;5002712;28;20551;-69
2021/04/29 12:11:45;;;;;;;19.50;13.48;;;14.80;21.50;;;;;;5011718;28;20435;-70
2021/04/29 12:14:23;;;;;;;16.83;13.00;;;14.40;20.70;;;;;;5012877;28;20380;-68
2021/04/29 12:16:59;;;;;;;17.08;13.50;;;14.10;21.30;;;;;;5011672;28;20504;-69
2021/04/29 12:19:29;;;;;;;17.58;13.35;;;13.90;20.00;;;;;;5010922;28;20389;-70
2021/04/29 12:21:56;;;;;;;30.42;14.15;;;13.90;19.70;;;;;;5011688;28;20416;-69
2021/04/29 12:24:21;;;;;;;15.63;13.57;;;13.80;18.60;;;;;;5002851;28;20870;-69
2021/04/29 12:26:47;;;;;;;19.67;13.05;;;13.70;20.40;;;;;;5002206;28;20508;-71
2021/04/29 12:29:17;;;;;;;14.65;11.68;;;13.50;20.00;;;;;;4993404;28;20481;-73
2021/04/29 12:31:57;;;;;;;17.45;11.00;;;13.20;19.20;;;;;;5003246;28;20440;-70
2021/04/29 12:34:24;;;;;;;13.15;10.25;;;12.90;20.20;;;;;;5011256;28;20940;-73
2021/04/29 12:36:53;;;;;;;17.85;10.95;;;12.50;21.60;;;;;;5005589;28;20400;-74